VEC weather

Estancia Caridad Airport
El Corcovado, Chubut Province, Argentina

Public forecast

Using degrees Celsius for public forecast. Weather courtesy of forecast.io.

Closest aviation weather report (METAR) to Estancia Caridad Airport

Closest report is Alto Palena Airport, 25.2 nm (46.7 km) WNW. Retrieved 2020/04/08 21:00 UTC (3 minutes ago):

SCAP 082100Z 24006KT CAVOK 21/04 Q1015

Closest aviation forecast (TAF) to Estancia Caridad Airport

Forecast is more than 12 hours old.

Closest forecast is Brigadier Antonio Parodi Airport, 49.1 nm (90.9 km) N. Retrieved 2019/04/29 06:00 UTC (12 months ago):

TAF SAVE 290500Z 2906/3006 27015KT 9999 SCT030 SCT080 TX10/2919Z TN01/2910Z BECMG 2911/2913 25020G40KT BKN023 BECMG 2919/2921 29020KT